Preston, United Kingdom
Current Conditions -  °F | °C
As of 9:50 AM on Saturday 25 Oct 2014 (Local Time) from EGOW Reporting Station
Broken Clouds Broken Clouds  
Wind Chill: 52°   Ceiling: 4500
Heat Index: 52°   Visibility: 6mi
Dew Point: 46°   Wind: 14mph
Humidity: 82%   Direction: 190°S
Pressure: 29.91"   Gusts: NA
Location:  53.76°N, 2.71°W
Report Text: EGOW 250850Z 19012KT 9999 FEW010 BKN045 11/08 Q1013 BLU
Loading
Personal Weather Stations






























Interactive Weather Map New forecast layout! Learn more

10-Day Weather Forecast

Advertisements
Track Severe Weather on mobile